Time;durP1;ratioP1;P1;durP2;ratioP2;P2;SDS_P1;SDS_P2;PMS_P1;PMS_P2;Temp;Humidity;BMP_temperature;BMP_pressure;BME280_temperature;BME280_humidity;BME280_pressure;Samples;Min_cycle;Max_cycle;Signal;HPM_P1;HPM_P2
2023/04/26 00:01:04;;;;;;;5.27;3.10;;;;;;;2.44;100.00;100675.28;4990602;28;20202;-69
2023/04/26 00:03:30;;;;;;;6.47;3.00;;;;;;;2.42;100.00;100686.47;5007339;28;20208;-71
2023/04/26 00:06:02;;;;;;;5.10;3.20;;;;;;;2.47;100.00;100688.50;5006696;28;20576;-70
2023/04/26 00:08:29;;;;;;;4.80;3.00;;;;;;;2.40;100.00;100683.78;5013209;28;20202;-70
2023/04/26 00:10:55;;;;;;;9.73;3.20;;;;;;;2.33;100.00;100679.03;5004184;28;20233;-69
2023/04/26 00:13:22;;;;;;;8.30;3.17;;;;;;;2.36;100.00;100689.63;4990088;28;20217;-69
2023/04/26 00:15:48;;;;;;;5.60;3.40;;;;;;;2.32;100.00;100687.69;5005767;28;20252;-69
2023/04/26 00:18:14;;;;;;;4.40;2.87;;;;;;;2.22;100.00;100685.44;5013129;28;20287;-69
2023/04/26 00:20:41;;;;;;;5.07;3.07;;;;;;;2.26;100.00;100682.16;5003704;28;20200;-72
2023/04/26 00:23:10;;;;;;;6.23;3.10;;;;;;;2.15;100.00;100683.34;4984979;28;20856;-70
2023/04/26 00:25:37;;;;;;;6.83;3.40;;;;;;;2.10;100.00;100684.81;4997957;28;20314;-69
2023/04/26 00:28:03;;;;;;;5.70;3.23;;;;;;;1.99;100.00;100684.25;5008814;28;20572;-70
2023/04/26 00:30:30;;;;;;;7.93;3.60;;;;;;;2.19;100.00;100682.66;5012156;28;20198;-71
2023/04/26 00:32:57;;;;;;;6.53;3.50;;;;;;;2.09;100.00;100680.41;5017255;28;20635;-70
2023/04/26 00:35:23;;;;;;;5.33;3.47;;;;;;;2.15;100.00;100680.72;5015358;28;20315;-69
2023/04/26 00:37:50;;;;;;;5.70;3.37;;;;;;;2.14;100.00;100686.78;5009857;28;20213;-71
2023/04/26 00:40:16;;;;;;;7.17;3.67;;;;;;;2.24;100.00;100682.91;5013701;28;20222;-69
2023/04/26 00:42:42;;;;;;;5.47;3.40;;;;;;;2.06;100.00;100682.88;4997368;28;20234;-70
2023/04/26 00:45:09;;;;;;;7.47;3.70;;;;;;;2.12;100.00;100675.34;5010131;28;20287;-69
2023/04/26 00:47:35;;;;;;;10.87;3.60;;;;;;;2.16;100.00;100687.75;5015171;28;20723;-68
2023/04/26 00:50:03;;;;;;;6.87;3.97;;;;;;;2.00;100.00;100691.28;5015900;28;20196;-69
2023/04/26 00:52:30;;;;;;;7.87;3.57;;;;;;;1.92;100.00;100694.28;5019072;28;20198;-69
2023/04/26 00:54:57;;;;;;;11.80;3.90;;;;;;;2.01;100.00;100684.34;5015018;28;20344;-70
2023/04/26 00:57:24;;;;;;;4.80;3.23;;;;;;;1.97;100.00;100682.38;4995296;28;20250;-71
2023/04/26 00:59:50;;;;;;;6.00;3.40;;;;;;;1.96;100.00;100691.03;5012315;28;20233;-69
2023/04/26 01:02:17;;;;;;;5.67;3.47;;;;;;;1.79;100.00;100695.38;5009251;28;20274;-70
2023/04/26 01:04:44;;;;;;;7.70;3.17;;;;;;;1.88;100.00;100693.22;4993065;28;20709;-69
2023/04/26 01:07:11;;;;;;;9.07;3.63;;;;;;;1.94;100.00;100685.72;5011110;28;20291;-68
2023/04/26 01:09:38;;;;;;;5.10;3.17;;;;;;;1.85;100.00;100680.03;5004421;28;20696;-70
2023/04/26 01:12:06;;;;;;;4.13;3.03;;;;;;;1.66;100.00;100682.50;4985946;28;20196;-69
2023/04/26 01:14:35;;;;;;;7.87;3.23;;;;;;;1.50;100.00;100686.88;5002705;28;20220;-69
2023/04/26 01:17:02;;;;;;;5.60;3.27;;;;;;;1.45;100.00;100690.94;5003243;28;20252;-69
2023/04/26 01:19:28;;;;;;;6.50;3.57;;;;;;;1.36;100.00;100692.16;4992711;28;20201;-71
2023/04/26 01:21:55;;;;;;;4.73;2.90;;;;;;;1.35;100.00;100688.66;5006337;28;20721;-69
2023/04/26 01:24:21;;;;;;;5.33;3.60;;;;;;;1.28;100.00;100688.25;5001161;28;20220;-69
2023/04/26 01:26:48;;;;;;;8.00;2.70;;;;;;;1.22;100.00;100691.41;5002827;28;20205;-69
2023/04/26 01:29:19;;;;;;;4.47;2.80;;;;;;;1.14;100.00;100692.66;4991737;28;20228;-70
2023/04/26 01:31:47;;;;;;;7.07;2.77;;;;;;;1.00;100.00;100689.31;4995393;28;20544;-68
2023/04/26 01:34:14;;;;;;;6.03;3.57;;;;;;;0.90;100.00;100693.13;4998675;28;20213;-69
2023/04/26 01:36:41;;;;;;;5.40;3.00;;;;;;;0.81;100.00;100696.91;5010835;28;20249;-68
2023/04/26 01:39:08;;;;;;;6.07;3.30;;;;;;;0.74;100.00;100692.13;5009681;28;21001;-71
2023/04/26 01:41:34;;;;;;;3.80;2.80;;;;;;;0.68;100.00;100694.41;4996171;28;20910;-69
2023/04/26 01:44:01;;;;;;;6.53;2.80;;;;;;;0.66;100.00;100693.41;5004625;28;20654;-69
2023/04/26 01:46:27;;;;;;;6.53;3.10;;;;;;;0.68;100.00;100691.78;5010221;28;20630;-69
2023/04/26 01:48:53;;;;;;;4.90;2.73;;;;;;;0.63;100.00;100697.63;5011476;28;20208;-69
2023/04/26 01:51:20;;;;;;;4.30;2.70;;;;;;;0.65;100.00;100702.94;5008133;28;20209;-69
2023/04/26 01:53:46;;;;;;;6.27;2.97;;;;;;;0.65;100.00;100704.66;5005789;28;20223;-69
2023/04/26 01:56:13;;;;;;;6.27;3.13;;;;;;;0.63;100.00;100701.94;5008372;28;20707;-70
2023/04/26 01:58:39;;;;;;;6.03;2.90;;;;;;;0.71;100.00;100703.28;5008742;28;20204;-69
2023/04/26 02:01:07;;;;;;;5.97;3.20;;;;;;;0.68;100.00;100700.50;5009487;28;20200;-72
2023/04/26 02:03:34;;;;;;;6.60;3.40;;;;;;;0.69;100.00;100701.41;5006235;28;20318;-69
2023/04/26 02:06:01;;;;;;;4.13;2.50;;;;;;;0.68;100.00;100705.72;5010213;28;20204;-71
2023/04/26 02:08:28;;;;;;;7.33;3.37;;;;;;;0.67;100.00;100703.03;5007861;28;20227;-69
2023/04/26 02:10:55;;;;;;;6.23;2.97;;;;;;;0.65;100.00;100696.81;4985473;28;20209;-69
2023/04/26 02:13:21;;;;;;;7.33;3.43;;;;;;;0.67;100.00;100700.41;4990838;28;20196;-70
2023/04/26 02:15:48;;;;;;;8.67;3.03;;;;;;;0.64;100.00;100701.13;5005976;28;20224;-70
2023/04/26 02:18:16;;;;;;;7.00;3.60;;;;;;;0.58;100.00;100701.69;5006380;28;20667;-69
2023/04/26 02:20:44;;;;;;;5.27;3.23;;;;;;;0.52;100.00;100701.34;5006593;28;20266;-72
2023/04/26 02:23:11;;;;;;;6.93;3.30;;;;;;;0.42;100.00;100699.00;5007151;28;20204;-70
2023/04/26 02:25:38;;;;;;;5.70;3.00;;;;;;;0.39;100.00;100697.91;5006710;28;20236;-70
2023/04/26 02:28:05;;;;;;;4.80;2.80;;;;;;;0.37;100.00;100695.22;5010483;28;20231;-71
2023/04/26 02:30:31;;;;;;;5.23;3.03;;;;;;;0.33;100.00;100690.63;5004682;28;20276;-69
2023/04/26 02:32:58;;;;;;;5.33;3.10;;;;;;;0.32;100.00;100697.56;4990654;28;20199;-70
2023/04/26 02:35:25;;;;;;;6.63;3.00;;;;;;;0.31;100.00;100697.47;5004913;28;20228;-69
2023/04/26 02:37:51;;;;;;;4.87;2.87;;;;;;;0.29;100.00;100692.16;5006235;28;20695;-69
2023/04/26 02:40:18;;;;;;;4.77;2.90;;;;;;;0.35;100.00;100698.53;4993068;28;20207;-70
2023/04/26 02:42:45;;;;;;;5.53;2.90;;;;;;;0.34;100.00;100700.25;4991772;28;20243;-69
2023/04/26 02:45:12;;;;;;;5.00;3.00;;;;;;;0.33;100.00;100695.84;5007338;28;20222;-70
2023/04/26 02:47:38;;;;;;;5.80;3.00;;;;;;;0.33;100.00;100698.44;4991731;28;20258;-69
2023/04/26 02:50:06;;;;;;;5.80;3.50;;;;;;;0.29;100.00;100693.88;5007619;28;20266;-70
2023/04/26 02:52:33;;;;;;;6.83;3.00;;;;;;;0.26;100.00;100696.31;5005569;28;20255;-69
2023/04/26 02:55:01;;;;;;;5.63;3.03;;;;;;;0.26;100.00;100704.13;4989045;28;20228;-70
2023/04/26 02:57:28;;;;;;;5.80;3.47;;;;;;;0.20;100.00;100691.63;5008421;28;20206;-69
2023/04/26 02:59:54;;;;;;;5.20;3.43;;;;;;;0.21;100.00;100689.94;5009535;28;20206;-70
2023/04/26 03:02:21;;;;;;;7.33;3.13;;;;;;;0.18;100.00;100690.66;5003507;28;20192;-70
2023/04/26 03:04:47;;;;;;;9.13;3.17;;;;;;;0.13;100.00;100694.69;5006768;28;20227;-68
2023/04/26 03:07:14;;;;;;;5.30;3.33;;;;;;;0.10;100.00;100685.78;5008772;28;20227;-69
2023/04/26 03:09:40;;;;;;;8.97;3.40;;;;;;;0.02;100.00;100692.25;5009577;28;20609;-69
2023/04/26 03:12:07;;;;;;;5.90;3.00;;;;;;;0.03;100.00;100686.25;4990355;28;20569;-67
2023/04/26 03:14:36;;;;;;;4.90;3.03;;;;;;;0.03;100.00;100694.06;5002278;28;20222;-69
2023/04/26 03:17:02;;;;;;;4.83;3.07;;;;;;;-0.02;100.00;100692.03;5001265;28;20232;-69
2023/04/26 03:19:29;;;;;;;5.37;3.03;;;;;;;-0.08;100.00;100678.66;4989724;28;20210;-69
2023/04/26 03:21:55;;;;;;;8.43;3.30;;;;;;;-0.05;100.00;100694.47;5003472;28;20210;-70
2023/04/26 03:24:22;;;;;;;5.67;2.70;;;;;;;-0.07;100.00;100693.47;5008622;28;20225;-69
2023/04/26 03:26:48;;;;;;;5.60;3.00;;;;;;;-0.11;100.00;100690.59;5007620;28;20199;-69
2023/04/26 03:29:15;;;;;;;3.80;2.90;;;;;;;-0.15;100.00;100691.22;5006906;28;20196;-69
2023/04/26 03:31:42;;;;;;;8.17;2.80;;;;;;;-0.03;100.00;100697.16;5003364;28;20237;-70
2023/04/26 03:34:08;;;;;;;8.73;3.27;;;;;;;-0.04;100.00;100688.44;5005881;28;20218;-70
2023/04/26 03:36:35;;;;;;;5.43;3.20;;;;;;;-0.11;100.00;100688.00;5009153;28;20250;-72
2023/04/26 03:39:01;;;;;;;4.83;2.80;;;;;;;-0.16;100.00;100687.72;5007508;28;20197;-69
2023/04/26 03:41:27;;;;;;;5.33;2.80;;;;;;;-0.17;100.00;100693.72;5006814;28;20198;-69
2023/04/26 03:43:54;;;;;;;5.37;3.17;;;;;;;-0.10;100.00;100689.78;5009225;28;20295;-70
2023/04/26 03:46:20;;;;;;;6.07;3.07;;;;;;;-0.11;100.00;100688.91;5005120;28;20205;-69
2023/04/26 03:48:47;;;;;;;4.30;3.10;;;;;;;-0.13;100.00;100693.09;5002421;28;20257;-70
2023/04/26 03:51:13;;;;;;;7.10;3.20;;;;;;;0.23;100.00;100691.81;4997943;28;20590;-69
2023/04/26 03:53:40;;;;;;;6.50;2.90;;;;;;;0.03;100.00;100687.16;5006567;28;20213;-69
2023/04/26 03:56:06;;;;;;;7.63;3.00;;;;;;;0.04;100.00;100685.44;4998727;28;20207;-69
2023/04/26 03:58:32;;;;;;;7.93;3.50;;;;;;;0.02;100.00;100681.84;5006994;28;20203;-69
2023/04/26 04:00:59;;;;;;;8.30;3.00;;;;;;;0.12;100.00;100676.38;5006799;28;20199;-69
2023/04/26 04:03:26;;;;;;;7.13;3.37;;;;;;;0.18;100.00;100676.72;5006137;28;20207;-69
2023/04/26 04:05:53;;;;;;;5.87;3.23;;;;;;;0.01;100.00;100678.34;5002590;28;20229;-69
2023/04/26 04:08:19;;;;;;;7.40;3.30;;;;;;;0.17;100.00;100677.53;5007771;28;20301;-69
2023/04/26 04:10:45;;;;;;;5.40;3.27;;;;;;;0.03;100.00;100681.94;4990355;28;20672;-69
2023/04/26 04:13:12;;;;;;;6.33;3.10;;;;;;;-0.04;100.00;100685.84;5004700;28;20228;-69
2023/04/26 04:15:38;;;;;;;6.60;3.20;;;;;;;-0.09;100.00;100681.19;5005878;28;20246;-71
2023/04/26 04:18:05;;;;;;;7.60;3.83;;;;;;;0.13;100.00;100683.38;5006281;28;20202;-69
2023/04/26 04:20:31;;;;;;;9.57;3.43;;;;;;;0.16;100.00;100691.38;5004512;28;20207;-70
2023/04/26 04:22:57;;;;;;;8.90;3.43;;;;;;;0.22;100.00;100690.00;5010355;28;20191;-70
2023/04/26 04:25:24;;;;;;;6.10;3.57;;;;;;;0.18;100.00;100685.44;5059581;23;20269;-75
2023/04/26 04:27:52;;;;;;;9.20;3.60;;;;;;;0.31;100.00;100693.16;5066561;28;20244;-73
2023/04/26 04:30:18;;;;;;;8.77;4.10;;;;;;;0.41;100.00;100697.22;5051015;28;20291;-74
2023/04/26 04:32:45;;;;;;;7.40;3.93;;;;;;;0.51;100.00;100694.34;5064677;28;20203;-74
2023/04/26 04:35:12;;;;;;;11.67;4.17;;;;;;;0.68;100.00;100694.41;5075895;28;20245;-74
2023/04/26 04:37:38;;;;;;;5.83;3.50;;;;;;;0.61;100.00;100698.38;5087400;28;20199;-74
2023/04/26 04:40:09;;;;;;;7.47;3.30;;;;;;;0.68;100.00;100695.28;5084870;28;20211;-74
2023/04/26 04:42:37;;;;;;;7.07;3.80;;;;;;;0.62;100.00;100705.38;5085746;28;20225;-74
2023/04/26 04:45:04;;;;;;;8.57;4.83;;;;;;;0.75;100.00;100714.78;5085801;28;20254;-74
2023/04/26 04:47:30;;;;;;;10.47;4.27;;;;;;;0.80;100.00;100709.06;5086052;28;20195;-75
2023/04/26 04:49:57;;;;;;;7.87;4.47;;;;;;;0.93;100.00;100726.28;5081685;28;20224;-74
2023/04/26 04:52:24;;;;;;;11.27;4.17;;;;;;;1.07;100.00;100727.94;5086150;28;20240;-74
2023/04/26 04:54:50;;;;;;;8.17;4.17;;;;;;;1.12;100.00;100728.19;5085326;28;20716;-75
2023/04/26 04:57:17;;;;;;;6.00;3.97;;;;;;;1.21;100.00;100726.13;5067270;28;20625;-74
2023/04/26 04:59:44;;;;;;;9.87;4.30;;;;;;;1.21;100.00;100729.63;5068659;28;20211;-74
2023/04/26 05:02:10;;;;;;;11.70;4.27;;;;;;;1.27;100.00;100725.56;5084889;28;20619;-74
2023/04/26 05:04:37;;;;;;;9.10;4.40;;;;;;;1.24;100.00;100727.19;5079879;28;20696;-75
2023/04/26 05:07:04;;;;;;;8.37;4.37;;;;;;;1.38;100.00;100727.94;5083909;28;20196;-75
2023/04/26 05:09:31;;;;;;;9.80;4.10;;;;;;;1.41;100.00;100735.94;5082228;28;20236;-75
2023/04/26 05:11:57;;;;;;;10.27;4.37;;;;;;;1.42;100.00;100724.69;5071968;28;20200;-74
2023/04/26 05:14:23;;;;;;;10.20;4.47;;;;;;;1.64;100.00;100726.78;5089674;28;20561;-74
2023/04/26 05:16:50;;;;;;;8.63;4.77;;;;;;;1.75;100.00;100732.56;5087289;28;20925;-74
2023/04/26 05:19:16;;;;;;;8.93;4.63;;;;;;;1.80;100.00;100713.72;5089817;28;20224;-74
2023/04/26 05:21:42;;;;;;;9.20;4.60;;;;;;;1.91;100.00;100734.28;5086134;28;20197;-74
2023/04/26 05:24:09;;;;;;;6.97;4.10;;;;;;;1.91;100.00;100722.13;5088728;28;20732;-74
2023/04/26 05:26:35;;;;;;;7.93;4.03;;;;;;;1.87;100.00;100718.44;5089715;28;20193;-73
2023/04/26 05:29:02;;;;;;;10.43;4.17;;;;;;;2.00;100.00;100738.31;5072194;28;20658;-73
2023/04/26 05:31:28;;;;;;;7.67;4.57;;;;;;;2.08;100.00;100739.59;5092347;28;20204;-72
2023/04/26 05:33:55;;;;;;;6.57;4.17;;;;;;;2.17;100.00;100728.72;5091224;28;20201;-73
2023/04/26 05:36:22;;;;;;;14.87;4.80;;;;;;;2.41;100.00;100730.00;5094215;28;20193;-73
2023/04/26 05:38:48;;;;;;;10.47;5.03;;;;;;;3.41;100.00;100728.84;5091565;28;20201;-73
2023/04/26 05:41:14;;;;;;;17.80;5.70;;;;;;;4.27;100.00;100722.25;5091087;28;20336;-73
2023/04/26 05:43:41;;;;;;;11.17;5.37;;;;;;;4.79;100.00;100734.97;5074284;28;20206;-72
2023/04/26 05:46:07;;;;;;;8.77;4.80;;;;;;;4.75;100.00;100731.31;5083901;28;20604;-73
2023/04/26 05:48:33;;;;;;;13.60;4.33;;;;;;;5.09;97.72;100743.22;5067620;28;21932;-74
2023/04/26 05:51:00;;;;;;;10.87;3.93;;;;;;;5.22;95.86;100738.56;5088081;28;20657;-73
2023/04/26 05:53:26;;;;;;;6.60;3.80;;;;;;;5.45;94.58;100736.81;5090211;28;20623;-73
2023/04/26 05:55:53;;;;;;;9.07;3.50;;;;;;;5.64;95.82;100741.97;5089637;28;20212;-73
2023/04/26 05:58:19;;;;;;;6.57;4.10;;;;;;;5.73;95.19;100751.03;5087736;28;20203;-73
2023/04/26 06:00:46;;;;;;;6.27;3.97;;;;;;;5.74;96.36;100759.00;5054003;28;20402;-71
2023/04/26 06:03:13;;;;;;;10.90;4.37;;;;;;;5.94;96.68;100755.41;5065331;28;20194;-73
2023/04/26 06:05:40;;;;;;;9.80;3.90;;;;;;;6.08;96.72;100763.84;5054137;28;20218;-72
2023/04/26 06:08:07;;;;;;;7.80;4.13;;;;;;;6.24;95.04;100750.41;5073432;28;20619;-71
2023/04/26 06:10:34;;;;;;;14.20;4.40;;;;;;;6.42;94.02;100752.81;5087088;28;20230;-72
2023/04/26 06:13:01;;;;;;;6.47;4.00;;;;;;;6.56;92.91;100748.03;5087642;28;20201;-73
2023/04/26 06:15:27;;;;;;;6.97;3.90;;;;;;;6.72;93.19;100760.88;5091189;28;20238;-71
2023/04/26 06:17:53;;;;;;;9.77;4.27;;;;;;;6.77;92.43;100764.53;5090674;28;20190;-72
2023/04/26 06:20:20;;;;;;;7.27;4.30;;;;;;;6.68;92.13;100758.97;5088778;28;20208;-72
2023/04/26 06:22:47;;;;;;;9.03;4.60;;;;;;;6.39;93.18;100763.19;5089282;28;20323;-70
2023/04/26 06:25:13;;;;;;;11.03;4.30;;;;;;;6.19;92.99;100766.84;5090284;28;20275;-72
2023/04/26 06:27:40;;;;;;;10.97;4.60;;;;;;;6.28;93.67;100765.44;5089558;28;20203;-72
2023/04/26 06:30:10;;;;;;;7.60;4.43;;;;;;;6.42;93.72;100772.97;5072843;28;20253;-72
2023/04/26 06:32:39;;;;;;;6.87;4.20;;;;;;;6.54;91.58;100771.66;5090549;28;20225;-71
2023/04/26 06:35:06;;;;;;;8.60;4.60;;;;;;;6.78;89.20;100771.59;5072700;28;20217;-72
2023/04/26 06:37:33;;;;;;;5.77;3.47;;;;;;;6.58;89.42;100772.66;5072252;28;20660;-71
2023/04/26 06:40:00;;;;;;;6.67;3.77;;;;;;;6.83;88.69;100770.06;5089081;28;20221;-68
2023/04/26 06:42:27;;;;;;;6.37;3.87;;;;;;;6.82;86.16;100770.91;5076640;28;20206;-70
2023/04/26 06:44:53;;;;;;;11.67;4.17;;;;;;;6.97;86.07;100769.63;5081710;28;20225;-72
2023/04/26 06:47:20;;;;;;;7.53;3.70;;;;;;;7.37;85.89;100763.94;5089635;28;20198;-70
2023/04/26 06:49:46;;;;;;;6.27;3.50;;;;;;;7.78;83.07;100759.94;5090663;28;20193;-72
2023/04/26 06:52:13;;;;;;;7.13;3.60;;;;;;;8.15;82.87;100751.38;5088974;28;20335;-72
2023/04/26 06:54:39;;;;;;;5.80;3.77;;;;;;;9.60;76.32;100752.53;5084116;28;20221;-73
2023/04/26 06:57:22;;;;;;;6.53;3.67;;;;;;;11.54;68.52;100754.56;5089204;28;20315;-72
2023/04/26 06:59:48;;;;;;;8.57;3.60;;;;;;;11.36;67.04;100751.63;5089540;28;20665;-73
2023/04/26 07:02:14;;;;;;;6.77;3.60;;;;;;;11.19;67.74;100754.00;5087116;28;20207;-73
2023/04/26 07:04:41;;;;;;;5.20;3.30;;;;;;;11.08;66.14;100763.53;5085075;28;20754;-73
2023/04/26 07:07:08;;;;;;;7.97;3.63;;;;;;;10.85;67.25;100768.44;5090297;28;20201;-73
2023/04/26 07:09:37;;;;;;;5.97;3.57;;;;;;;10.48;66.64;100767.72;5090412;28;20677;-73
2023/04/26 07:12:04;;;;;;;6.10;3.80;;;;;;;10.55;65.14;100771.38;5088487;28;20656;-70
2023/04/26 07:14:30;;;;;;;4.40;3.30;;;;;;;12.06;57.87;100761.56;5090063;28;20670;-71
2023/04/26 07:16:57;;;;;;;5.57;3.20;;;;;;;13.39;52.14;100760.34;5071791;28;20232;-71
2023/04/26 07:19:23;;;;;;;7.23;3.30;;;;;;;14.60;45.25;100761.91;5090257;28;20197;-70
2023/04/26 07:21:49;;;;;;;9.30;3.10;;;;;;;15.71;42.81;100750.47;5071713;28;20680;-70
2023/04/26 07:24:16;;;;;;;5.37;2.53;;;;;;;16.15;39.65;100761.03;5089216;28;20604;-72
2023/04/26 07:26:42;;;;;;;11.07;3.20;;;;;;;15.35;40.30;100744.25;5072367;28;20249;-72
2023/04/26 07:29:09;;;;;;;6.77;2.90;;;;;;;14.53;42.68;100754.78;5091240;28;20207;-73
2023/04/26 07:31:35;;;;;;;4.93;3.10;;;;;;;14.62;43.75;100750.38;5089637;28;20230;-73
2023/04/26 07:34:02;;;;;;;5.13;3.07;;;;;;;14.03;44.79;100744.78;5088935;28;20241;-73
2023/04/26 07:36:28;;;;;;;7.07;2.80;;;;;;;13.84;45.40;100751.78;5090180;28;20197;-72
2023/04/26 07:38:54;;;;;;;7.10;3.07;;;;;;;13.69;46.02;100755.25;5087545;28;20198;-72
2023/04/26 07:41:21;;;;;;;6.03;3.00;;;;;;;13.86;45.09;100749.13;5089543;28;20253;-73
2023/04/26 07:43:47;;;;;;;5.17;3.17;;;;;;;14.00;42.45;100742.09;5089788;28;20200;-71
2023/04/26 07:46:14;;;;;;;4.97;2.50;;;;;;;14.00;42.56;100736.75;5087529;28;20692;-73
2023/04/26 07:48:41;;;;;;;4.60;2.00;;;;;;;14.45;39.13;100740.56;5089904;28;20208;-77
2023/04/26 07:51:09;;;;;;;4.20;2.20;;;;;;;15.16;37.64;100750.44;5087635;28;20195;-78
2023/04/26 07:53:35;;;;;;;5.90;2.30;;;;;;;14.95;36.70;100728.22;5088002;28;20204;-76
2023/04/26 07:56:09;;;;;;;4.87;1.80;;;;;;;14.33;37.65;100738.69;5084188;28;20594;-75
2023/04/26 07:58:38;;;;;;;6.27;2.50;;;;;;;13.47;40.64;100738.22;5088804;28;20193;-81
2023/04/26 08:01:05;;;;;;;3.97;2.00;;;;;;;13.67;40.11;100740.16;5063835;28;20286;-80
2023/04/26 08:03:31;;;;;;;5.70;2.27;;;;;;;13.39;40.73;100736.38;5078482;28;20248;-79
2023/04/26 08:05:58;;;;;;;3.93;2.10;;;;;;;12.99;42.15;100743.09;5067928;28;20229;-81
2023/04/26 08:08:28;;;;;;;5.50;1.90;;;;;;;12.41;43.75;100750.50;5089129;28;20224;-80
2023/04/26 08:10:54;;;;;;;4.63;2.27;;;;;;;12.21;44.66;100751.13;5087742;28;20656;-82
2023/04/26 08:13:21;;;;;;;4.63;2.10;;;;;;;12.32;44.53;100759.22;5084822;28;20233;-80
2023/04/26 08:15:47;;;;;;;3.80;2.10;;;;;;;12.65;43.39;100753.41;5081867;28;20225;-79
2023/04/26 08:18:14;;;;;;;3.77;2.10;;;;;;;13.13;41.64;100752.09;5089413;28;20230;-80
2023/04/26 08:20:40;;;;;;;6.10;2.10;;;;;;;13.52;42.24;100748.00;5087828;28;20214;-77
2023/04/26 08:23:07;;;;;;;4.50;2.20;;;;;;;13.96;39.02;100741.19;5086033;28;20580;-75
2023/04/26 08:25:33;;;;;;;6.67;1.57;;;;;;;14.26;36.53;100743.09;5085380;28;20282;-73
2023/04/26 08:28:01;;;;;;;3.67;1.53;;;;;;;13.58;36.01;100732.06;5085235;28;20204;-73
2023/04/26 08:30:27;;;;;;;2.93;1.50;;;;;;;13.77;35.86;100745.53;5084903;28;20258;-75
2023/04/26 08:32:54;;;;;;;4.53;1.50;;;;;;;14.08;35.19;100745.69;5071580;28;20203;-75
2023/04/26 08:35:20;;;;;;;4.07;1.40;;;;;;;14.21;35.80;100738.66;5087472;28;20223;-74
2023/04/26 08:37:46;;;;;;;3.87;1.70;;;;;;;14.69;36.21;100737.94;5088387;28;20436;-72
2023/04/26 08:40:13;;;;;;;5.20;2.00;;;;;;;14.75;34.65;100740.63;5083618;28;20521;-74
2023/04/26 08:42:42;;;;;;;3.97;1.90;;;;;;;14.37;34.76;100745.81;5073921;28;20225;-75
2023/04/26 08:45:12;;;;;;;3.93;1.80;;;;;;;14.20;35.16;100736.88;5072686;28;20738;-71
2023/04/26 08:47:51;;;;;;;4.10;1.93;;;;;;;14.36;36.41;100734.25;5074803;28;20204;-74
2023/04/26 08:50:20;;;;;;;2.57;1.60;;;;;;;14.70;36.32;100739.72;5084330;28;20201;-73
2023/04/26 08:52:50;;;;;;;2.73;1.90;;;;;;;14.12;35.30;100739.50;5087474;28;20210;-74
2023/04/26 08:55:18;;;;;;;2.67;1.80;;;;;;;13.63;36.60;100733.91;5091185;28;20274;-76
2023/04/26 08:57:46;;;;;;;6.30;2.17;;;;;;;13.61;36.48;100746.31;5089410;28;20193;-74
2023/04/26 09:00:14;;;;;;;5.13;1.67;;;;;;;13.64;36.95;100740.13;5091106;28;20204;-73
2023/04/26 09:02:51;;;;;;;3.27;1.93;;;;;;;13.54;38.57;100731.16;5092746;28;20253;-73
2023/04/26 09:05:22;;;;;;;4.27;2.07;;;;;;;13.18;38.76;100740.66;5090916;28;20224;-75
2023/04/26 09:07:50;;;;;;;5.13;2.47;;;;;;;13.14;38.76;100745.91;5093307;28;20205;-74
2023/04/26 09:10:20;;;;;;;5.47;2.53;;;;;;;13.33;38.35;100736.34;5092922;28;20675;-74
2023/04/26 09:12:54;;;;;;;3.90;2.00;;;;;;;13.70;37.44;100727.75;5092976;28;20194;-75
2023/04/26 09:15:22;;;;;;;3.67;1.97;;;;;;;14.35;37.10;100721.81;5090612;28;20221;-74
2023/04/26 09:17:50;;;;;;;5.83;2.07;;;;;;;15.16;36.36;100722.00;5092311;28;20610;-75
2023/04/26 09:20:28;;;;;;;4.73;2.20;;;;;;;15.86;34.69;100718.38;5092643;28;20593;-74
2023/04/26 09:23:05;;;;;;;3.23;1.90;;;;;;;16.40;32.86;100727.06;5086191;28;20193;-72
2023/04/26 09:25:33;;;;;;;6.30;1.90;;;;;;;16.32;31.46;100727.09;5068100;28;20260;-76
2023/04/26 09:28:00;;;;;;;3.37;1.53;;;;;;;16.07;29.28;100723.66;5089510;28;20220;-73
2023/04/26 09:30:28;;;;;;;4.83;1.70;;;;;;;16.09;30.68;100707.63;5050802;28;20209;-74
2023/04/26 09:32:55;;;;;;;4.37;1.70;;;;;;;16.21;30.89;100707.56;5087823;28;20255;-75
2023/04/26 09:35:28;;;;;;;3.70;1.83;;;;;;;15.84;30.79;100705.03;5067925;28;20279;-72
2023/04/26 09:38:00;;;;;;;2.60;1.80;;;;;;;15.64;31.68;100705.09;5086824;28;20329;-70
2023/04/26 09:40:46;;;;;;;3.07;1.77;;;;;;;15.11;32.80;100713.09;5088888;28;20201;-72
2023/04/26 09:43:22;;;;;;;4.50;2.10;;;;;;;15.38;32.54;100708.66;5091820;28;20209;-75
2023/04/26 09:45:50;;;;;;;3.27;1.80;;;;;;;15.45;33.45;100703.28;5092257;28;20256;-76
2023/04/26 09:48:29;;;;;;;4.03;1.70;;;;;;;15.81;33.42;100702.38;5089812;28;20197;-72
2023/04/26 09:50:57;;;;;;;5.80;1.50;;;;;;;15.61;31.57;100701.53;5074509;28;20208;-74
2023/04/26 09:53:33;;;;;;;5.53;1.73;;;;;;;15.75;32.46;100699.72;5091626;28;20197;-72
2023/04/26 09:56:09;;;;;;;4.30;1.70;;;;;;;15.62;32.92;100693.53;5087095;28;20210;-72
2023/04/26 09:58:56;;;;;;;5.87;1.80;;;;;;;15.97;32.07;100711.22;5087023;28;20221;-75
2023/04/26 10:01:25;;;;;;;8.07;1.67;;;;;;;16.20;31.59;100706.69;5090996;28;20231;-73
2023/04/26 10:03:51;;;;;;;3.63;1.60;;;;;;;16.25;30.42;100703.97;5090074;28;20259;-73
2023/04/26 10:06:18;;;;;;;4.87;1.90;;;;;;;16.02;31.68;100704.09;5088546;28;20247;-73
2023/04/26 10:08:45;;;;;;;5.30;1.90;;;;;;;16.35;31.20;100705.69;5091365;28;20683;-73
2023/04/26 10:11:11;;;;;;;3.27;1.60;;;;;;;16.76;31.35;100701.94;5091541;28;20201;-73
2023/04/26 10:13:40;;;;;;;5.27;1.90;;;;;;;17.01;29.82;100705.31;5089833;28;20669;-74
2023/04/26 10:16:08;;;;;;;2.87;1.70;;;;;;;17.11;30.44;100704.34;5091476;28;20217;-73
2023/04/26 10:18:35;;;;;;;5.90;2.40;;;;;;;16.80;30.21;100707.25;5083925;28;20202;-74
2023/04/26 10:21:27;;;;;;;5.27;2.60;;;;;;;16.54;30.65;100707.41;5091437;28;20198;-73
2023/04/26 10:23:54;;;;;;;4.00;2.30;;;;;;;16.27;31.87;100695.06;5086750;28;20201;-72
2023/04/26 10:26:53;;;;;;;2.57;2.00;;;;;;;16.55;31.40;100697.59;5078886;22;20231;-73
2023/04/26 10:29:20;;;;;;;5.27;2.13;;;;;;;16.67;30.03;100697.53;5066959;28;20658;-74
2023/04/26 10:32:05;;;;;;;6.03;2.60;;;;;;;16.78;31.15;100693.00;5065121;28;20209;-72
2023/04/26 10:34:33;;;;;;;5.17;2.57;;;;;;;16.52;30.35;100697.59;5063847;28;20198;-72
2023/04/26 10:37:13;;;;;;;4.57;1.97;;;;;;;16.66;29.67;100698.44;5051732;28;20739;-73
2023/04/26 10:39:41;;;;;;;5.80;1.60;;;;;;;17.00;29.53;100692.84;5059834;28;20241;-73
2023/04/26 10:42:27;;;;;;;4.13;1.87;;;;;;;16.60;30.56;100679.72;5046299;28;20206;-74
2023/04/26 10:44:58;;;;;;;5.63;1.70;;;;;;;16.70;30.75;100681.47;5035134;28;20224;-74
2023/04/26 10:47:35;;;;;;;5.33;1.93;;;;;;;16.98;30.41;100678.59;5068922;28;20214;-73
2023/04/26 10:50:06;;;;;;;2.83;1.67;;;;;;;17.06;29.66;100679.41;5051708;28;20194;-73
2023/04/26 10:52:34;;;;;;;5.97;1.80;;;;;;;16.80;29.45;100671.56;5069252;28;20213;-72
2023/04/26 10:55:01;;;;;;;5.87;1.70;;;;;;;16.07;29.90;100664.88;5064355;28;20729;-73
2023/04/26 10:57:49;;;;;;;4.00;1.90;;;;;;;16.68;29.43;100671.69;5066939;28;20194;-74
2023/04/26 11:00:19;;;;;;;7.30;1.90;;;;;;;16.75;30.11;100679.63;5042280;28;20205;-73
2023/04/26 11:02:54;;;;;;;3.90;1.60;;;;;;;15.96;29.25;100664.91;5071020;28;20285;-74
2023/04/26 11:05:54;;;;;;;3.70;1.70;;;;;;;16.55;29.29;100666.38;5069447;28;20268;-72
2023/04/26 11:08:31;;;;;;;5.67;1.80;;;;;;;16.85;28.81;100668.00;5065712;28;20293;-73
2023/04/26 11:11:01;;;;;;;3.57;1.73;;;;;;;16.32;29.62;100660.28;5066632;28;20197;-73
2023/04/26 11:13:38;;;;;;;7.23;1.50;;;;;;;16.53;28.05;100651.25;5063733;28;20201;-74
2023/04/26 11:16:06;;;;;;;4.03;1.60;;;;;;;17.38;29.11;100644.31;5068024;28;20570;-73
2023/04/26 11:18:35;;;;;;;3.27;1.47;;;;;;;18.07;28.21;100644.44;5068480;28;21533;-72
2023/04/26 11:21:01;;;;;;;4.70;1.53;;;;;;;18.74;27.32;100640.78;5070449;28;20236;-72
2023/04/26 11:23:29;;;;;;;3.63;1.37;;;;;;;17.91;27.20;100641.06;5035908;28;20194;-73
2023/04/26 11:26:02;;;;;;;3.27;1.47;;;;;;;18.19;27.92;100643.38;5049381;28;20218;-73
2023/04/26 11:28:34;;;;;;;3.00;1.80;;;;;;;18.11;27.63;100643.50;5067820;28;20576;-72